Tiempo atmosférico en la estación meteorológica de Barco De Avila, Ávila (1012 m.)



Fecha
DESCASC
Temp. máxima en grados centígrados (hora)
DESCASC
Temp. mínima en grados centígrados (hora)
DESCASC
Temp. media en grados centígrados
DESCASC
Racha de viento máxima en m/sg (hora)
DESCASC
Velocidad máxima media en intervalos de 10 minutos(hora)
DESCASC
Precipitaciones diarias en mm
DESCASC
Precipitaciones de 00:00 a 06:00 en mm
DESCASC
Precipitaciones de 06:00 a 12:00 en mm
DESCASC
Precipitaciones de 12:00 a 18:00 en mm
DESCASC
Precipitaciones de 18:00 a 24:00 en mm
DESCASC
13-10-2019 20.1 (17:00) 12.5 (08:50) 16.3 13.33 (06:00) 8.61 (05:40) 0 0 0 0 0
12-10-2019 23.6 (13:30) 13.9 (03:00) 18.8 15.83 (17:50) 8.89 (17:50) 0 0 0 0 0
11-10-2019 25.1 (14:00) 7.3 (05:40) 16.2 11.11 (15:50) 6.39 (15:30) 0 0 0 0 0
10-10-2019 25.6 (16:30) 4.1 (00:00) 14.9 6.67 (15:40) 4.72 (15:40) 0 0 0 0 0
09-10-2019 24.4 (16:00) 8.9 (00:00) 16.6 7.5 (14:10) 3.89 (17:20) 0 0 0 0 0
08-10-2019 27.7 (14:50) 7.7 (00:00) 17.7 6.94 (15:40) 4.72 (16:30) 0 0 0 0 0
07-10-2019 27.4 (16:10) 5.9 (00:00) 16.6 5.83 (13:50) 3.61 (14:20) 0 0 0 0 0
06-10-2019 24.7 (17:20) 2.5 (00:00) 13.6 6.94 (13:10) 3.61 (14:10) 0 0 0 0 0
05-10-2019 24.9 (15:50) 5.6 (00:00) 15.2 6.67 (16:00) 3.61 (16:00) 0 0 0 0 0
04-10-2019 24.3 (17:50) 5.8 (00:00) 15 6.39 (13:40) 3.61 (05:40) 0 0 0 0 0
03-10-2019 24.5 (17:00) 3.3 (00:00) 13.9 6.67 (14:40) 4.17 (02:20) 0 0 0 0 0
02-10-2019 20.4 (15:30) 4.2 (00:00) 12.3 6.39 (15:40) 3.33 (13:40) 0 0 0 0 0
01-10-2019 20.6 (17:40) 5.1 (00:00) 12.9 7.22 (15:20) 4.72 (15:20) 0 0 0 0 0
30-09-2019 26.1 (15:40) 5.3 (00:00) 15.7 8.89 (16:30) 5.83 (16:30) 0 0 0 0 0
29-09-2019 26.8 (16:50) 5.6 (00:00) 16.2 8.33 (13:40) 5.28 (12:30) 0 0 0 0 0
28-09-2019 26.1 (16:20) 5.5 (00:00) 15.8 6.94 (17:20) 4.17 (09:00) 0 0 0 0 0
27-09-2019 24.4 (16:30) 5.3 (00:00) 14.8 7.78 (17:10) 3.61 (15:30) 0 0 0 0 0
26-09-2019 24.9 (17:50) 6.9 (00:00) 15.9 8.33 (15:40) 5.56 (15:40) 0 0 0 0 0
25-09-2019 21 (17:30) 9.6 (00:00) 15.3 5.56 (12:20) 3.06 (12:20) 0 0 0 0 0
24-09-2019 22 (14:50) 6.1 (00:00) 14 9.72 (16:50) 6.11 (16:50) 0 0 0 0 0
23-09-2019 22.5 (17:00) 5.7 (00:00) 14.1 6.67 (19:30) 3.89 (21:30) 0 0 0 0 0
22-09-2019 18.5 (15:50) 10.3 (00:00) 14.4 11.94 (01:30) 7.78 (00:40) 2.8 2.8 0 0 0
21-09-2019 16.8 (14:30) 13.4 (00:00) 15.1 12.5 (23:20) 7.78 (23:20) 1.4 0 0 0.8 0.6
20-09-2019 22.8 (15:00) 11.7 (00:00) 17.2 10 (17:30) 6.11 (14:10) 2.2 0 0 0 2.2
19-09-2019 25.4 (18:20) 10.1 (00:00) 17.8 6.67 (00:20) 3.89 (04:00) 0 0 0 0 0
18-09-2019 25.2 (15:50) 8.9 (00:00) 17.1 6.94 (01:00) 4.17 (00:50) 0 0 0 0 0
17-09-2019 26 (17:10) 11.7 (00:00) 18.8 10.56 (17:30) 5 (17:30) 4.6 0 0 0 4.6
16-09-2019 21.9 (16:10) 12.5 (00:00) 17.2 7.22 (13:30) 4.72 (13:40) 8.4 3.8 4.6 0 0

Gráficas

Temp. máximas Temp. mínimas Temp. medias Precipitaciones Rachas de viento máximas Velocidades máximas media en intervalos de 10 minutos

Datos horarios

Fecha y hora oficial Temperatura (ºC) Velocidad del viento (km/h) Dirección del viento Racha (km/h) Dirección de racha Precipitación (mm) Presión (hPa) Tendencia (hPa) Humedad (%)
2019-10-15 23:00:00 6.1 8 Sudoeste 14 Sudoeste 0 -- -- 85
2019-10-15 22:00:00 6.4 6 Oeste 9 Sur 0 -- -- 83
2019-10-15 21:00:00 8.3 3 Sur 15 Oeste 0 -- -- 74
2019-10-15 20:00:00 10.2 11 Oeste 24 Sudoeste 0 -- -- 66
2019-10-15 19:00:00 11.6 14 Oeste 24 Sudoeste 0 -- -- 61
2019-10-15 18:00:00 13.3 13 Sudoeste 23 Sudoeste 0 -- -- 52
2019-10-15 17:00:00 13.9 10 Noroeste 21 Norte 0 -- -- 50
2019-10-15 16:00:00 13.3 9 Norte 19 Nordeste 0 -- -- 50
2019-10-15 15:00:00 12.7 8 Nordeste 18 Este 0 -- -- 48
2019-10-15 14:00:00 12.2 6 Nordeste 15 Norte 0 -- -- 53
2019-10-15 13:00:00 11 9 Norte 18 Norte 0 -- -- 61
2019-10-15 12:00:00 10 6 Nordeste 13 Nordeste 0 -- -- 65
2019-10-15 11:00:00 6.5 0 Calma 5 Sudeste 0 -- -- 83
2019-10-15 10:00:00 2.6 5 Sudoeste 13 Sudoeste 0 -- -- 93
2019-10-15 09:00:00 0.1 5 Sudoeste 11 Oeste 0 -- -- 94
2019-10-15 08:00:00 0.3 5 Oeste 8 Sudoeste 0 -- -- 94
2019-10-15 07:00:00 0.8 4 Oeste 9 Sudoeste 0 -- -- 94
2019-10-15 06:00:00 1.1 5 Oeste 9 Oeste 0 -- -- 92
2019-10-15 05:00:00 1.4 3 Oeste 12 Oeste 0 -- -- 92
2019-10-15 04:00:00 2.2 2 Norte 8 Sur 0 -- -- 92
2019-10-15 03:00:00 2.6 4 Norte 9 Sudoeste 0 -- -- 93
2019-10-15 02:00:00 2.6 3 Sudoeste 9 Sudoeste 0 -- -- 90
2019-10-15 01:00:00 3.8 4 Oeste 9 Oeste 0 -- -- 89
2019-10-15 00:00:00 5.5 3 Sur 15 Norte 0 -- -- 80
2019-10-14 23:00:00 7.2 3 Noroeste 14 Oeste 0 -- -- 75
2019-10-14 22:00:00 7.4 7 Oeste 17 Oeste 0 -- -- 73
2019-10-14 21:00:00 7.8 6 Oeste 10 Sudoeste 0 -- -- 84
2019-10-14 20:00:00 8.8 6 Sur 38 Noroeste 0 -- -- 71
2019-10-14 19:00:00 8.5 12 Oeste 37 Oeste 1 -- -- 77
2019-10-14 18:00:00 9.9 9 Sudoeste 21 Oeste 1.4 -- -- 82
2019-10-14 17:00:00 9.3 10 Noroeste 38 Sudoeste 2 -- -- 86
2019-10-14 16:00:00 9.4 26 Sudoeste 43 Sudoeste 2.6 -- -- 84
2019-10-14 15:00:00 11.5 15 Oeste 32 Sudoeste 0 -- -- 80
2019-10-14 14:00:00 11.4 19 Sudoeste 34 Oeste 0 -- -- 74
2019-10-14 13:00:00 12.2 17 Sudoeste 46 Oeste 0 -- -- 63
2019-10-14 12:00:00 12.1 23 Sudoeste 46 Oeste 0 -- -- 64
2019-10-14 11:00:00 10.8 22 Sudoeste 44 Sudoeste 0 -- -- 78
2019-10-14 10:00:00 10.5 22 Sudoeste 57 Sudoeste 1 -- -- 79
2019-10-14 09:00:00 11.7 25 Sudoeste 50 Sur 2.4 -- -- 83
2019-10-14 08:00:00 12.6 21 Sudoeste 57 Sudoeste 0.4 -- -- 77
2019-10-14 07:00:00 15.5 35 Sudoeste 54 Sudoeste 0 -- -- 59
2019-10-14 06:00:00 16.2 23 Sudoeste 55 Sudoeste 0 -- -- 55
2019-10-14 05:00:00 17 29 Sur 55 Sur 0 -- -- 52
2019-10-14 04:00:00 17.8 27 Sur 48 Sur 0 -- -- 49
2019-10-14 03:00:00 18.1 22 Sur 46 Sudoeste 0 -- -- 47
2019-10-14 02:00:00 17.9 20 Sur 34 Sur 0 -- -- 50
2019-10-14 01:00:00 17.8 22 Sur 36 Sur 0 -- -- 53
2019-10-14 00:00:00 17.9 15 Sur 31 Sur 0 -- -- 52
2019-10-13 23:00:00 18.2 19 Sur 35 Sur 0 -- -- 50
2019-10-13 22:00:00 16.9 9 Sudoeste 33 Sudoeste 0 -- -- 54
2019-10-13 21:00:00 18.1 21 Sur 36 Sur 0 -- -- 50
2019-10-13 20:00:00 17.6 19 Sur 38 Sudoeste 0 -- -- 50
2019-10-13 19:00:00 18.3 26 Sur 39 Sur 0 -- -- 48
2019-10-13 18:00:00 19.1 26 Sur 41 Sur 0 -- -- 46
2019-10-13 17:00:00 20.1 15 Sudoeste 33 Oeste 0 -- -- 44
2019-10-13 16:00:00 19.1 21 Oeste 42 Sudoeste 0 -- -- 48
2019-10-13 15:00:00 18.7 24 Sudoeste 42 Sudoeste 0 -- -- 51
2019-10-13 14:00:00 18.5 24 Sudoeste 41 Sudoeste 0 -- -- 51
2019-10-13 13:00:00 17.4 25 Sudoeste 44 Sudoeste 0 -- -- 55
2019-10-13 12:00:00 15.8 28 Sudoeste 45 Sudoeste 0 -- -- 63
2019-10-13 11:00:00 14.8 24 Sudoeste 40 Sudoeste 0 -- -- 66
2019-10-13 10:00:00 13.4 21 Sudoeste 38 Sudoeste 0 -- -- 74
2019-10-13 09:00:00 12.5 21 Sudoeste 35 Oeste 0 -- -- 77
2019-10-13 08:00:00 13.3 23 Sudoeste 40 Sudoeste 0 -- -- 77
2019-10-13 07:00:00 13.6 24 Sudoeste 42 Sudoeste 0 -- -- 80
2019-10-13 06:00:00 14.2 30 Sudoeste 48 Sudoeste 0 -- -- 78
2019-10-13 05:00:00 14.9 19 Sudoeste 32 Sudoeste 0 -- -- 76
2019-10-13 04:00:00 16.2 22 Sudoeste 42 Sur 0 -- -- 68
2019-10-13 03:00:00 17.8 28 Sur 43 Sur 0 -- -- 58
2019-10-13 02:00:00 18.3 26 Sur 41 Sur 0 -- -- 56
2019-10-13 01:00:00 17.9 22 Sur 33 Sur 0 -- -- 59
2019-10-13 00:00:00 18 14 Sudoeste 28 Sudoeste 0 -- -- 53
2019-10-12 23:00:00 19.5 18 Sur 42 Sudoeste 0 -- -- 50
2019-10-12 22:00:00 20.5 26 Sur 45 Sur 0 -- -- 45
2019-10-12 21:00:00 19.7 21 Sur 35 Sur 0 -- -- 46
2019-10-12 20:00:00 20 16 Sur 36 Sur 0 -- -- 42
2019-10-12 19:00:00 21.7 27 Sur 50 Sur 0 -- -- 39
2019-10-12 18:00:00 22.5 28 Sur 57 Sur 0 -- -- 38
2019-10-12 17:00:00 23.3 28 Sur 44 Sur 0 -- -- 39
2019-10-12 16:00:00 22 22 Sur 45 Sur 0 -- -- 42
2019-10-12 15:00:00 22.1 16 Sudoeste 35 Sur 0 -- -- 42
2019-10-12 14:00:00 21.8 18 Sur 30 Sudeste 0 -- -- 42
2019-10-12 13:00:00 22.8 20 Sur 41 Sur 0 -- -- 41
2019-10-12 12:00:00 22.2 20 Sur 39 Sur 0 -- -- 42
2019-10-12 11:00:00 20.9 17 Sur 30 Sur 0 -- -- 43
2019-10-12 10:00:00 19.1 18 Sudoeste 26 Sudoeste 0 -- -- 47
2019-10-12 09:00:00 14.5 8 Sudoeste 14 Sudoeste 0 -- -- 68
2019-10-12 08:00:00 15 4 Sudoeste 12 Sur 0 -- -- 68
2019-10-12 07:00:00 14.7 6 Sudoeste 13 Oeste 0 -- -- 70
2019-10-12 06:00:00 15.7 5 Sudoeste 18 Oeste 0 -- -- 67
2019-10-12 05:00:00 15.5 7 Sudoeste 10 Sur 0 -- -- 70
2019-10-12 04:00:00 15 5 Sudoeste 13 Sudoeste 0 -- -- 71
2019-10-12 03:00:00 13.9 6 Sudoeste 15 Sudoeste 0 -- -- 73
2019-10-12 02:00:00 14.8 9 Oeste 19 Sudoeste 0 -- -- 69
2019-10-12 01:00:00 16.7 4 Sudoeste 17 Oeste 0 -- -- 64
2019-10-12 00:00:00 18.4 9 Sudoeste 22 Sur 0 -- -- 58
2019-10-11 23:00:00 17.2 8 Oeste 17 Oeste 0 -- -- 63
2019-10-11 22:00:00 17.1 7 Oeste 14 Sudoeste 0 -- -- 65
2019-10-11 21:00:00 18 5 Sudoeste 12 Oeste 0 -- -- 62
2019-10-11 20:00:00 20.1 5 Sudoeste 17 Sudoeste 0 -- -- 55
2019-10-11 19:00:00 21.8 12 Sudoeste 26 Sur 0 -- -- 49
2019-10-11 18:00:00 22.5 10 Sur 30 Sudoeste 0 -- -- 49
2019-10-11 17:00:00 22.9 18 Sur 32 Sur 0 -- -- 50
2019-10-11 16:00:00 24.2 21 Sur 40 Sur 0 -- -- 46
2019-10-11 15:00:00 24.8 23 Sur 37 Sur 0 -- -- 43
2019-10-11 14:00:00 25.1 18 Sur 32 Sur 0 -- -- 44
2019-10-11 13:00:00 24.6 13 Sudoeste 22 Sudoeste 0 -- -- 45
2019-10-11 12:00:00 22.4 9 Oeste 14 Oeste 0 -- -- 54
2019-10-11 11:00:00 18.5 4 Oeste 7 Sudoeste 0 -- -- 64
2019-10-11 10:00:00 12.7 0 Calma 13 Oeste 0 -- -- 79
2019-10-11 09:00:00 9.3 10 Oeste 17 Sudoeste 0 -- -- 88
2019-10-11 08:00:00 8.9 12 Sudoeste 17 Sudoeste 0 -- -- 87
2019-10-11 07:00:00 8.3 5 Sudoeste 14 Sudoeste 0 -- -- 85
2019-10-11 06:00:00 7.9 9 Oeste 13 Sudoeste 0 -- -- 87
2019-10-11 05:00:00 7.8 3 Sudoeste 12 Oeste 0 -- -- 83
2019-10-11 04:00:00 8.9 8 Oeste 14 Sudoeste 0 -- -- 81
2019-10-11 03:00:00 8.7 6 Sudoeste 11 Oeste 0 -- -- 79
2019-10-11 02:00:00 9.2 4 Oeste 13 Sudoeste 0 -- -- 78
2019-10-11 01:00:00 10.2 10 Sudoeste 18 Sudoeste 0 -- -- 74
2019-10-11 00:00:00 10.5 9 Oeste 14 Sudoeste 0 -- -- 73
2019-10-10 23:00:00 11.3 4 Oeste 9 Sudoeste 0 -- -- 71
2019-10-10 22:00:00 12.9 6 Sudoeste 10 Sudoeste 0 -- -- 67
2019-10-10 21:00:00 15.8 6 Sudoeste 9 Sudoeste 0 -- -- 54
2019-10-10 20:00:00 20.5 4 Sudoeste 18 Oeste 0 -- -- 41
2019-10-10 19:00:00 23.1 12 Oeste 19 Oeste 0 -- -- 33
2019-10-10 18:00:00 24.8 10 Oeste 22 Sudoeste 0 -- -- 29
2019-10-10 17:00:00 25.2 13 Sudoeste 23 Oeste 0 -- -- 26
2019-10-10 16:00:00 25.3 15 Sudoeste 24 Sudoeste 0 -- -- 25
2019-10-10 15:00:00 25.3 12 Oeste 17 Sudoeste 0 -- -- 27
2019-10-10 14:00:00 22.8 6 Norte 16 Norte 0 -- -- 34
2019-10-10 13:00:00 20.2 6 Nordeste 13 Norte 0 -- -- 40
2019-10-10 12:00:00 17.3 7 Norte 13 Norte 0 -- -- 48
2019-10-10 11:00:00 14.4 2 Oeste 11 Sudoeste 0 -- -- 57
2019-10-10 10:00:00 8.6 2 Sudeste 13 Sudoeste 0 -- -- 76
2019-10-10 09:00:00 4.1 4 Sur 15 Sudoeste 0 -- -- 83
2019-10-10 08:00:00 4.5 11 Sudoeste 15 Sudoeste 0 -- -- 88
2019-10-10 07:00:00 5.2 10 Sudoeste 18 Sudoeste 0 -- -- 85
2019-10-10 06:00:00 5.4 11 Sudoeste 18 Sudoeste 0 -- -- 86
2019-10-10 05:00:00 5.2 12 Sudoeste 17 Sudoeste 0 -- -- 82
2019-10-10 04:00:00 5.7 13 Oeste 18 Sudoeste 0 -- -- 82
2019-10-10 03:00:00 6.7 9 Oeste 18 Sudoeste 0 -- -- 78
2019-10-10 02:00:00 7.3 12 Sudoeste 18 Sudoeste 0 -- -- 77
2019-10-10 01:00:00 7.8 8 Oeste 12 Sudoeste 0 -- -- 79
2019-10-10 00:00:00 8.9 7 Sudoeste 10 Sudoeste 0 -- -- 77
2019-10-09 23:00:00 10.4 4 Sudoeste 9 Sudoeste 0 -- -- 72
2019-10-09 22:00:00 12.8 5 Sudoeste 7 Norte 0 -- -- 64
2019-10-09 21:00:00 17.6 3 Nordeste 12 Norte 0 -- -- 45
2019-10-09 20:00:00 19.5 5 Norte 17 Norte 0 -- -- 41
2019-10-09 19:00:00 22.2 9 Norte 23 Noroeste 0 -- -- 35
2019-10-09 18:00:00 23.7 10 Norte 22 Norte 0 -- -- 31
2019-10-09 17:00:00 24 12 Norte 24 Norte 0 -- -- 30
2019-10-09 16:00:00 24.4 9 Norte 19 Norte 0 -- -- 29
2019-10-09 15:00:00 23.5 9 Norte 27 Nordeste 0 -- -- 34
2019-10-09 14:00:00 21.9 9 Nordeste 21 Nordeste 0 -- -- 53
2019-10-09 13:00:00 19.9 3 Noroeste 11 Sudoeste 0 -- -- 61
2019-10-09 12:00:00 17 3 Sudoeste 12 Sudoeste 0 -- -- 72
2019-10-09 11:00:00 15.6 5 Nordeste 14 Este 0 -- -- 80
2019-10-09 10:00:00 14 0 Calma 8 Sudoeste 0 -- -- 83
2019-10-09 09:00:00 12.3 0 Calma 10 Sur 0 -- -- 88
2019-10-09 08:00:00 12.2 5 Sudoeste 17 Nordeste 0 -- -- 87
2019-10-09 07:00:00 10.6 12 Nordeste 21 Nordeste 0 -- -- 88
2019-10-09 06:00:00 9.1 10 Sudoeste 15 Oeste 0 -- -- 90
2019-10-09 05:00:00 9.6 8 Oeste 10 Oeste 0 -- -- 87
2019-10-09 04:00:00 9.6 6 Sudoeste 12 Sudoeste 0 -- -- 87
2019-10-09 03:00:00 9 3 Sudeste 9 Oeste 0 -- -- 83
2019-10-09 02:00:00 10.5 4 Oeste 7 Oeste 0 -- -- 82
2019-10-09 01:00:00 12.1 6 Sudoeste 13 Oeste 0 -- -- 76
2019-10-09 00:00:00 12.6 8 Oeste 12 Oeste 0 -- -- 74
2019-10-08 23:00:00 14.1 7 Oeste 10 Oeste 0 -- -- 70
2019-10-08 22:00:00 16.8 2 Sudeste 13 Norte 0 -- -- 59
2019-10-08 21:00:00 18.6 6 Sudoeste 12 Sudoeste 0 -- -- 53
2019-10-08 20:00:00 23.2 6 Sudoeste 18 Oeste 0 -- -- 41
2019-10-08 19:00:00 25.7 11 Oeste 20 Oeste 0 -- -- 36
2019-10-08 18:00:00 26.9 12 Oeste 22 Oeste 0 -- -- 34
2019-10-08 17:00:00 27.2 14 Oeste 25 Sudoeste 0 -- -- 33
2019-10-08 16:00:00 27.5 13 Sudoeste 25 Sudoeste 0 -- -- 34
2019-10-08 15:00:00 27.6 12 Oeste 23 Sudoeste 0 -- -- 34
2019-10-08 14:00:00 26.7 7 Oeste 14 Sudoeste 0 -- -- 34
2019-10-08 13:00:00 25.1 3 Norte 8 Nordeste 0 -- -- 35
2019-10-08 12:00:00 22.1 3 Nordeste 7 Norte 0 -- -- 44
2019-10-08 11:00:00 17 5 Oeste 13 Sudoeste 0 -- -- 60
2019-10-08 10:00:00 12.1 9 Sudoeste 13 Sudoeste 0 -- -- 73
2019-10-08 09:00:00 7.7 7 Sudoeste 13 Oeste 0 -- -- 86
2019-10-08 08:00:00 8.2 9 Sudoeste 15 Sudoeste 0 -- -- 83
2019-10-08 07:00:00 8.6 8 Sudoeste 15 Sudoeste 0 -- -- 81
2019-10-08 06:00:00 8.8 10 Sudoeste 23 Sudoeste 0 -- -- 80
2019-10-08 05:00:00 8.9 10 Oeste 16 Sudoeste 0 -- -- 80
2019-10-08 04:00:00 9.6 11 Sudoeste 21 Sudoeste 0 -- -- 76
2019-10-08 03:00:00 9.7 11 Sudoeste 18 Sudoeste 0 -- -- 75
2019-10-08 02:00:00 10.2 11 Sudoeste 15 Sudoeste 0 -- -- 73
2019-10-08 01:00:00 10.6 12 Sudoeste 16 Sudoeste 0 -- -- 72
2019-10-08 00:00:00 11.5 6 Sudoeste 13 Oeste 0 -- -- 70
2019-10-07 23:00:00 12.1 10 Sudoeste 14 Sudoeste 0 -- -- 69
2019-10-07 22:00:00 14.6 5 Sudoeste 13 Sudoeste 0 -- -- 60
2019-10-07 21:00:00 17.4 7 Oeste 11 Sudoeste 0 -- -- 51
2019-10-07 20:00:00 22.8 0 Calma 16 Nordeste 0 -- -- 33
2019-10-07 19:00:00 25.6 9 Nordeste 21 Nordeste 0 -- -- 29
2019-10-07 18:00:00 26.5 10 Norte 19 Norte 0 -- -- 29
2019-10-07 17:00:00 27.4 6 Nordeste 19 Norte 0 -- -- 28
2019-10-07 16:00:00 27.2 5 Noroeste 18 Norte 0 -- -- 25
2019-10-07 15:00:00 26.4 8 Norte 21 Noroeste 0 -- -- 27
2019-10-07 14:00:00 25.5 10 Norte 21 Norte 0 -- -- 27
2019-10-07 13:00:00 24.4 6 Norte 13 Norte 0 -- -- 27
2019-10-07 12:00:00 21.1 2 Oeste 10 Sudoeste 0 -- -- 36
2019-10-07 11:00:00 16.1 5 Oeste 12 Sudoeste 0 -- -- 52
2019-10-07 10:00:00 10.7 10 Sudoeste 15 Oeste 0 -- -- 69
2019-10-07 09:00:00 6.2 12 Sudoeste 17 Sudoeste 0 -- -- 86
2019-10-07 08:00:00 6.6 7 Sudoeste 18 Sudoeste 0 -- -- 81
2019-10-07 07:00:00 6.4 6 Sudoeste 14 Sudoeste 0 -- -- 83
2019-10-07 06:00:00 7 10 Oeste 16 Oeste 0 -- -- 81
2019-10-07 05:00:00 6.9 9 Sudoeste 14 Sudoeste 0 -- -- 83
2019-10-07 04:00:00 7.1 3 Sudoeste 11 Oeste 0 -- -- 82
2019-10-07 03:00:00 7.5 8 Oeste 15 Sudoeste 0 -- -- 82
2019-10-07 02:00:00 8.1 5 Oeste 8 Sudoeste 0 -- -- 79
2019-10-07 01:00:00 8.9 4 Oeste 7 Oeste 0 -- -- 76
2019-10-07 00:00:00 9.6 3 Oeste 6 Oeste 0 -- -- 73
2019-10-06 23:00:00 10.8 4 Sudoeste 9 Oeste 0 -- -- 69
2019-10-06 22:00:00 12.5 4 Sudoeste 9 Oeste 0 -- -- 65
2019-10-06 21:00:00 15.2 4 Oeste 6 Oeste 0 -- -- 56
2019-10-06 20:00:00 21 3 Norte 10 Nordeste 0 -- -- 32
2019-10-06 19:00:00 23.9 5 Norte 14 Norte 0 -- -- 27
2019-10-06 18:00:00 24.4 6 Norte 15 Norte 0 -- -- 28
2019-10-06 17:00:00 24.2 6 Norte 19 Norte 0 -- -- 31
2019-10-06 16:00:00 23.6 7 Nordeste 19 Norte 0 -- -- 34
2019-10-06 15:00:00 22.3 7 Norte 23 Noroeste 0 -- -- 37
2019-10-06 14:00:00 21.2 13 Norte 25 Norte 0 -- -- 40
2019-10-06 13:00:00 20.2 11 Norte 23 Nordeste 0 -- -- 36
2019-10-06 12:00:00 16.6 3 Nordeste 10 Sur 0 -- -- 46
2019-10-06 11:00:00 12.5 8 Sudoeste 11 Oeste 0 -- -- 59
2019-10-06 10:00:00 7.3 5 Sudoeste 17 Sudoeste 0 -- -- 80
2019-10-06 09:00:00 2.7 5 Sudoeste 8 Sudoeste 0 -- -- 91
2019-10-06 08:00:00 3.3 4 Sudoeste 16 Sudoeste 0 -- -- 89
2019-10-06 07:00:00 3.4 9 Sudoeste 13 Oeste 0 -- -- 90
2019-10-06 06:00:00 4.3 5 Oeste 10 Sudoeste 0 -- -- 90
2019-10-06 05:00:00 4.9 5 Sudoeste 9 Oeste 0 -- -- 87
2019-10-06 04:00:00 6.1 6 Oeste 12 Sudoeste 0 -- -- 86
2019-10-06 03:00:00 7.3 5 Sudoeste 17 Sudoeste 0 -- -- 82
2019-10-06 02:00:00 7.7 9 Sudoeste 15 Sudoeste 0 -- -- 82
2019-10-06 01:00:00 8.3 6 Sudoeste 9 Oeste 0 -- -- 82
2019-10-06 00:00:00 9.9 0 Calma 12 Oeste 0 -- -- 77
2019-10-05 23:00:00 11.6 6 Sudoeste 11 Sudoeste 0 -- -- 74
2019-10-05 22:00:00 14 8 Sudoeste 12 Sudoeste 0 -- -- 74
2019-10-05 21:00:00 18.6 8 Nordeste 14 Nordeste 0 -- -- 40
2019-10-05 20:00:00 20.8 4 Sudoeste 15 Noroeste 0 -- -- 52
2019-10-05 19:00:00 23.5 7 Noroeste 21 Norte 0 -- -- 40
2019-10-05 18:00:00 24.4 9 Noroeste 23 Noroeste 0 -- -- 37
2019-10-05 17:00:00 24.6 11 Noroeste 23 Norte 0 -- -- 38
2019-10-05 16:00:00 24.5 13 Noroeste 24 Noroeste 0 -- -- 35
2019-10-05 15:00:00 24.6 8 Nordeste 19 Nordeste 0 -- -- 40
2019-10-05 14:00:00 23.4 7 Norte 20 Norte 0 -- -- 42
2019-10-05 13:00:00 21.8 8 Nordeste 14 Nordeste 0 -- -- 45
2019-10-05 12:00:00 18.6 2 Oeste 8 Sudoeste 0 -- -- 49
2019-10-05 11:00:00 13.9 3 Sudoeste 14 Sudoeste 0 -- -- 64
2019-10-05 10:00:00 9.5 10 Sudoeste 14 Sudoeste 0 -- -- 81
2019-10-05 09:00:00 5.7 9 Sudoeste 17 Sudoeste 0 -- -- 92
2019-10-05 08:00:00 6 9 Oeste 16 Oeste 0 -- -- 91
2019-10-05 07:00:00 6.1 11 Sudoeste 17 Sudoeste 0 -- -- 92
2019-10-05 06:00:00 7 8 Sudoeste 20 Sudoeste 0 -- -- 90
2019-10-05 05:00:00 7.2 10 Sudoeste 16 Sudoeste 0 -- -- 90
2019-10-05 04:00:00 7.4 9 Sudoeste 14 Sudoeste 0 -- -- 91
2019-10-05 03:00:00 7.6 11 Sudoeste 14 Sudoeste 0 -- -- 90
2019-10-05 02:00:00 8.2 5 Sudoeste 12 Oeste 0 -- -- 88
2019-10-05 01:00:00 9.3 6 Sudoeste 13 Sudoeste 0 -- -- 86
2019-10-05 00:00:00 10.1 8 Sudoeste 12 Sudoeste 0 -- -- 84
2019-10-04 23:00:00 11.7 3 Oeste 8 Oeste 0 -- -- 79
2019-10-04 22:00:00 13.9 4 Sudoeste 12 Oeste 0 -- -- 72
2019-10-04 21:00:00 17.3 5 Sudoeste 14 Oeste 0 -- -- 59
2019-10-04 20:00:00 20.2 10 Oeste 19 Oeste 0 -- -- 51
2019-10-04 19:00:00 23.1 10 Oeste 16 Oeste 0 -- -- 42
2019-10-04 18:00:00 24.1 5 Norte 15 Noroeste 0 -- -- 47
2019-10-04 17:00:00 23.7 5 Noroeste 16 Norte 0 -- -- 50
2019-10-04 16:00:00 22.7 6 Norte 18 Norte 0 -- -- 52
2019-10-04 15:00:00 21.6 9 Norte 23 Nordeste 0 -- -- 56
2019-10-04 14:00:00 20.7 12 Norte 23 Norte 0 -- -- 58
2019-10-04 13:00:00 20.3 10 Nordeste 21 Norte 0 -- -- 56
2019-10-04 12:00:00 18.1 10 Norte 21 Nordeste 0 -- -- 58
2019-10-04 11:00:00 13.7 3 Oeste 8 Sudoeste 0 -- -- 66
2019-10-04 10:00:00 9.1 5 Sudoeste 10 Sudoeste 0 -- -- 83
2019-10-04 09:00:00 5.8 5 Este 16 Sudoeste 0 -- -- 85
2019-10-04 08:00:00 6.1 12 Sudoeste 18 Sudoeste 0 -- -- 90
2019-10-04 07:00:00 6.3 7 Sudoeste 12 Oeste 0 -- -- 87
2019-10-04 06:00:00 7.1 9 Sudoeste 19 Sudoeste 0 -- -- 87
2019-10-04 05:00:00 6.1 5 Oeste 11 Sudoeste 0 -- -- 86
2019-10-04 04:00:00 7.3 8 Sudoeste 15 Sudoeste 0 -- -- 83
2019-10-04 03:00:00 7.1 7 Oeste 13 Oeste 0 -- -- 81
2019-10-04 02:00:00 7.1 6 Oeste 9 Oeste 0 -- -- 82
2019-10-04 01:00:00 8.1 3 Sudoeste 5 Oeste 0 -- -- 79
2019-10-04 00:00:00 9.2 3 Sudoeste 9 Oeste 0 -- -- 75
2019-10-03 23:00:00 10.3 5 Oeste 9 Oeste 0 -- -- 72
2019-10-03 22:00:00 12.5 7 Oeste 9 Sudoeste 0 -- -- 64
2019-10-03 21:00:00 14.5 6 Sudoeste 9 Sudoeste 0 -- -- 56
2019-10-03 20:00:00 20.9 0 Calma 10 Noroeste 0 -- -- 41
2019-10-03 19:00:00 23.4 8 Noroeste 15 Noroeste 0 -- -- 29
2019-10-03 18:00:00 23.9 5 Norte 19 Noroeste 0 -- -- 29
2019-10-03 17:00:00 24.5 7 Noroeste 21 Norte 0 -- -- 27
2019-10-03 16:00:00 24 8 Norte 21 Norte 0 -- -- 28
2019-10-03 15:00:00 23.1 9 Norte 24 Nordeste 0 -- -- 28
2019-10-03 14:00:00 22.5 7 Norte 17 Norte 0 -- -- 26
2019-10-03 13:00:00 20.3 0 Calma 11 Este 0 -- -- 35
2019-10-03 12:00:00 16.6 6 Nordeste 12 Norte 0 -- -- 45
2019-10-03 11:00:00 11.3 2 Norte 6 Sur 0 -- -- 60
2019-10-03 10:00:00 6.6 0 Calma 10 Sudoeste 0 -- -- 76
2019-10-03 09:00:00 3.6 8 Oeste 15 Oeste 0 -- -- 88
2019-10-03 08:00:00 3.3 9 Sudoeste 13 Oeste 0 -- -- 88
2019-10-03 07:00:00 3.7 2 Sudoeste 12 Sudoeste 0 -- -- 87
2019-10-03 06:00:00 4.6 7 Sudoeste 18 Sudoeste 0 -- -- 87
2019-10-03 05:00:00 5.2 11 Sudoeste 16 Sudoeste 0 -- -- 85
2019-10-03 04:00:00 5.3 13 Sudoeste 18 Sudoeste 0 -- -- 84
2019-10-03 03:00:00 5.3 13 Sudoeste 23 Sudoeste 0 -- -- 85
2019-10-03 02:00:00 6 8 Oeste 14 Sudoeste 0 -- -- 83
2019-10-03 01:00:00 6.7 12 Sudoeste 18 Sudoeste 0 -- -- 80
2019-10-03 00:00:00 7 4 Sudoeste 11 Oeste 0 -- -- 79
2019-10-02 23:00:00 8.4 6 Sudoeste 9 Sudoeste 0 -- -- 74
2019-10-02 22:00:00 10 6 Sudoeste 9 Sudoeste 0 -- -- 70
2019-10-02 21:00:00 14.9 5 Norte 11 Nordeste 0 -- -- 48
2019-10-02 20:00:00 16.8 4 Norte 15 Norte 0 -- -- 43
2019-10-02 19:00:00 18.9 8 Norte 17 Norte 0 -- -- 37
2019-10-02 18:00:00 19.5 10 Norte 22 Noroeste 0 -- -- 35
2019-10-02 17:00:00 19.9 9 Norte 22 Norte 0 -- -- 33
2019-10-02 16:00:00 20.4 10 Norte 23 Norte 0 -- -- 35
2019-10-02 15:00:00 20.1 9 Norte 22 Nordeste 0 -- -- 38
2019-10-02 14:00:00 18.7 11 Norte 21 Norte 0 -- -- 46
2019-10-02 13:00:00 16.6 10 Nordeste 19 Norte 0 -- -- 52
2019-10-02 12:00:00 14.4 8 Norte 14 Norte 0 -- -- 60
2019-10-02 11:00:00 12.2 5 Este 12 Sur 0 -- -- 72
2019-10-02 10:00:00 8.4 6 Sudoeste 10 Sur 0 -- -- 91
2019-10-02 09:00:00 5.2 6 Oeste 9 Oeste 0 -- -- 94
2019-10-02 08:00:00 4.4 4 Oeste 6 Oeste 0 -- -- 94
2019-10-02 07:00:00 4.3 2 Sudoeste 5 Oeste 0 -- -- 92
2019-10-02 06:00:00 5.6 4 Oeste 6 Oeste 0 -- -- 91
2019-10-02 05:00:00 6.6 0 Calma 4 Sur 0 -- -- 89
2019-10-02 04:00:00 7.9 0 Calma 5 Sudoeste 0 -- -- 89
2019-10-02 03:00:00 7.5 3 Oeste 5 Oeste 0 -- -- 89
2019-10-02 02:00:00 7.6 3 Noroeste 8 Nordeste 0 -- -- 84
2019-10-02 01:00:00 7.9 3 Sudoeste 7 Noroeste 0 -- -- 86
2019-10-02 00:00:00 8.9 2 Sudoeste 7 Noroeste 0 -- -- 85
2019-10-01 23:00:00 10 2 Sur 6 Nordeste 0 -- -- 77
2019-10-01 22:00:00 11.7 0 Calma 6 Sudoeste 0 -- -- 76
2019-10-01 21:00:00 14.7 3 Sudoeste 7 Sudoeste 0 -- -- 66
2019-10-01 20:00:00 18.8 3 Norte 12 Oeste 0 -- -- 50
2019-10-01 19:00:00 20.1 9 Norte 21 Norte 0 -- -- 46
2019-10-01 18:00:00 20.6 9 Norte 20 Noroeste 0 -- -- 46
2019-10-01 17:00:00 19.7 3 Este 23 Norte 0 -- -- 55
2019-10-01 16:00:00 19.9 12 Norte 26 Noroeste 0 -- -- 56
2019-10-01 15:00:00 18.6 14 Noroeste 22 Noroeste 0 -- -- 61
2019-10-01 14:00:00 19.1 8 Noroeste 22 Noroeste 0 -- -- 58
2019-10-01 13:00:00 18.1 5 Nordeste 12 Nordeste 0 -- -- 59
2019-10-01 12:00:00 15.2 3 Sudeste 10 Nordeste 0 -- -- 76
2019-10-01 11:00:00 11 4 Oeste 8 Oeste 0 -- -- 84
2019-10-01 10:00:00 10.7 8 Nordeste 14 Nordeste 0 -- -- 88
2019-10-01 09:00:00 6.3 3 Norte 9 Norte 0 -- -- 87
2019-10-01 08:00:00 5.3 5 Sudoeste 8 Sudoeste 0 -- -- 85
2019-10-01 07:00:00 6.5 4 Oeste 10 Nordeste 0 -- -- 78
2019-10-01 06:00:00 7.8 3 Este 10 Sudoeste 0 -- -- 71
2019-10-01 05:00:00 8.5 4 Sudoeste 14 Sudoeste 0 -- -- 70
2019-10-01 04:00:00 7.5 6 Sudoeste 10 Oeste 0 -- -- 76
2019-10-01 03:00:00 8.2 8 Oeste 15 Sudoeste 0 -- -- 70
2019-10-01 02:00:00 9 12 Sudoeste 16 Sudoeste 0 -- -- 68
2019-10-01 01:00:00 9.9 9 Sudoeste 14 Oeste 0 -- -- 66
2019-10-01 00:00:00 10 8 Sudoeste 14 Sudoeste 0 -- -- 68
2019-09-30 23:00:00 11.4 8 Sudoeste 13 Sudoeste 0 -- -- 63
2019-09-30 22:00:00 13 6 Oeste 12 Sudoeste 0 -- -- 57
2019-09-30 21:00:00 16.4 5 Sudoeste 17 Sudoeste 0 -- -- 44
2019-09-30 20:00:00 21.1 9 Sudoeste 25 Sudoeste 0 -- -- 29
2019-09-30 19:00:00 23.6 17 Sudoeste 30 Sudoeste 0 -- -- 28
2019-09-30 18:00:00 24.8 17 Oeste 29 Sudoeste 0 -- -- 26
2019-09-30 17:00:00 25.8 20 Sudoeste 32 Sudoeste 0 -- -- 27
2019-09-30 16:00:00 26.1 17 Sudoeste 28 Sudoeste 0 -- -- 27
2019-09-30 15:00:00 25.8 19 Oeste 28 Oeste 0 -- -- 26
2019-09-30 14:00:00 25.4 15 Oeste 28 Sudoeste 0 -- -- 28
2019-09-30 13:00:00 24.1 9 Oeste 18 Oeste 0 -- -- 31
2019-09-30 12:00:00 20.5 3 Oeste 11 Sudoeste 0 -- -- 41
2019-09-30 11:00:00 15.8 9 Sudoeste 17 Sudoeste 0 -- -- 50
2019-09-30 10:00:00 10.4 13 Sudoeste 22 Sudoeste 0 -- -- 71
2019-09-30 09:00:00 6.1 11 Sudoeste 20 Sudoeste 0 -- -- 88
2019-09-30 08:00:00 5.8 17 Sudoeste 24 Sudoeste 0 -- -- 88
2019-09-30 07:00:00 7 15 Sudoeste 21 Sudoeste 0 -- -- 82
2019-09-30 06:00:00 6.9 13 Sudoeste 19 Sudoeste 0 -- -- 83
2019-09-30 05:00:00 6.9 11 Sudoeste 16 Sudoeste 0 -- -- 83
2019-09-30 04:00:00 6.9 5 Sudoeste 12 Oeste 0 -- -- 81
2019-09-30 03:00:00 7.4 5 Sudoeste 11 Sudoeste 0 -- -- 80
2019-09-30 02:00:00 8.4 6 Oeste 9 Sudoeste 0 -- -- 76
2019-09-30 01:00:00 8.5 4 Oeste 10 Sur 0 -- -- 76
2019-09-30 00:00:00 10.3 5 Sudoeste 13 Oeste 0 -- -- 68
2019-09-29 23:00:00 11.4 7 Oeste 11 Oeste 0 -- -- 66
2019-09-29 22:00:00 13.4 6 Oeste 12 Sudoeste 0 -- -- 60
2019-09-29 21:00:00 16.4 9 Sudoeste 15 Oeste 0 -- -- 50
2019-09-29 20:00:00 21.9 6 Oeste 15 Sur 0 -- -- 32
2019-09-29 19:00:00 25.2 6 Noroeste 18 Norte 0 -- -- 24
2019-09-29 18:00:00 26 9 Noroeste 22 Noroeste 0 -- -- 24
2019-09-29 17:00:00 26.6 10 Nordeste 18 Sudoeste 0 -- -- 25
2019-09-29 16:00:00 26.1 13 Sudoeste 24 Sudoeste 0 -- -- 21
2019-09-29 15:00:00 25.6 13 Sudoeste 24 Sudoeste 0 -- -- 25
2019-09-29 14:00:00 24.8 15 Oeste 30 Oeste 0 -- -- 29
2019-09-29 13:00:00 24 17 Oeste 28 Oeste 0 -- -- 33
2019-09-29 12:00:00 22.7 16 Sudoeste 26 Sudoeste 0 -- -- 35
2019-09-29 11:00:00 16.7 3 Sudoeste 8 Oeste 0 -- -- 59
2019-09-29 10:00:00 11.3 4 Noroeste 9 Oeste 0 -- -- 70
2019-09-29 09:00:00 5.6 3 Sudoeste 10 Sudoeste 0 -- -- 83
2019-09-29 08:00:00 6.9 7 Oeste 17 Sudoeste 0 -- -- 79
2019-09-29 07:00:00 5.8 8 Oeste 13 Oeste 0 -- -- 85
2019-09-29 06:00:00 6.9 9 Oeste 15 Sudoeste 0 -- -- 79
2019-09-29 05:00:00 6.7 8 Oeste 13 Sudoeste 0 -- -- 80
2019-09-29 04:00:00 8.2 11 Sudoeste 17 Sudoeste 0 -- -- 73
2019-09-29 03:00:00 7.6 2 Sudoeste 16 Oeste 0 -- -- 76
2019-09-29 02:00:00 9.3 13 Sudoeste 27 Sudoeste 0 -- -- 69
2019-09-29 01:00:00 9.9 11 Sudoeste 16 Sudoeste 0 -- -- 70
2019-09-29 00:00:00 10.7 10 Sudoeste 15 Sudoeste 0 -- -- 70
2019-09-28 23:00:00 12.3 8 Sudoeste 14 Sudoeste 0 -- -- 69
2019-09-28 22:00:00 14.2 3 Sudoeste 10 Sudoeste 0 -- -- 66
2019-09-28 21:00:00 18 4 Sudoeste 13 Oeste 0 -- -- 48
2019-09-28 20:00:00 22.1 10 Oeste 24 Oeste 0 -- -- 37
2019-09-28 19:00:00 24.4 11 Oeste 23 Sudoeste 0 -- -- 33
2019-09-28 18:00:00 25.3 13 Oeste 25 Oeste 0 -- -- 29
2019-09-28 17:00:00 26 13 Oeste 24 Oeste 0 -- -- 33
2019-09-28 16:00:00 25.9 13 Oeste 22 Oeste 0 -- -- 28
2019-09-28 15:00:00 25.4 12 Oeste 19 Oeste 0 -- -- 29
2019-09-28 14:00:00 24.8 4 Noroeste 15 Norte 0 -- -- 32
2019-09-28 13:00:00 22.6 8 Norte 16 Norte 0 -- -- 36
2019-09-28 12:00:00 19.4 0 Calma 5 Oeste 0 -- -- 44
2019-09-28 11:00:00 14.7 3 Oeste 8 Sudoeste 0 -- -- 62
2019-09-28 10:00:00 10.3 2 Sur 20 Sudoeste 0 -- -- 72
2019-09-28 09:00:00 7.2 15 Sudoeste 22 Sudoeste 0 -- -- 79
2019-09-28 08:00:00 6.2 11 Sudoeste 21 Sudoeste 0 -- -- 87
2019-09-28 07:00:00 6.2 13 Sudoeste 18 Sudoeste 0 -- -- 88
2019-09-28 06:00:00 5.9 8 Sudoeste 16 Sudoeste 0 -- -- 89
2019-09-28 05:00:00 6.5 12 Sudoeste 24 Sudoeste 0 -- -- 87
2019-09-28 04:00:00 7 11 Sudoeste 17 Sudoeste 0 -- -- 88
2019-09-28 03:00:00 7.2 9 Oeste 14 Sudoeste 0 -- -- 86
2019-09-28 02:00:00 7.7 5 Sudoeste 10 Sudoeste 0 -- -- 84
2019-09-28 01:00:00 8.4 5 Oeste 9 Sudoeste 0 -- -- 82
2019-09-28 00:00:00 9.9 7 Oeste 12 Sudoeste 0 -- -- 78
2019-09-27 23:00:00 11.2 6 Oeste 10 Sudoeste 0 -- -- 74
2019-09-27 22:00:00 13.6 0 Calma 6 Oeste 0 -- -- 65
2019-09-27 21:00:00 16.8 2 Sudeste 11 Norte 0 -- -- 50
2019-09-27 20:00:00 21.2 3 Norte 17 Nordeste 0 -- -- 36
2019-09-27 19:00:00 23 9 Nordeste 19 Nordeste 0 -- -- 32
2019-09-27 18:00:00 23.8 10 Nordeste 28 Norte 0 -- -- 31
2019-09-27 17:00:00 24.2 9 Norte 22 Norte 0 -- -- 28
2019-09-27 16:00:00 24.2 10 Norte 21 Este 0 -- -- 29
2019-09-27 15:00:00 24.2 6 Norte 20 Nordeste 0 -- -- 28
2019-09-27 14:00:00 23.2 5 Norte 16 Norte 0 -- -- 31
2019-09-27 13:00:00 21.3 4 Nordeste 11 Norte 0 -- -- 36
2019-09-27 12:00:00 18.9 3 Nordeste 9 Nordeste 0 -- -- 45
2019-09-27 11:00:00 14.7 4 Sudoeste 12 Sur 0 -- -- 62
2019-09-27 10:00:00 10.2 6 Sudoeste 13 Sudoeste 0 -- -- 83
2019-09-27 09:00:00 5.8 4 Sudoeste 19 Oeste 0 -- -- 91
2019-09-27 08:00:00 5.9 11 Sudoeste 17 Oeste 0 -- -- 90
2019-09-27 07:00:00 6.2 8 Oeste 12 Sudoeste 0 -- -- 90
2019-09-27 06:00:00 6.8 5 Sudoeste 15 Oeste 0 -- -- 89
2019-09-27 05:00:00 7.7 11 Sudoeste 15 Sudoeste 0 -- -- 89
2019-09-27 04:00:00 8.2 6 Sudoeste 13 Sudoeste 0 -- -- 88
2019-09-27 03:00:00 8.6 5 Sudoeste 14 Sudoeste 0 -- -- 88
2019-09-27 02:00:00 9.2 8 Sudoeste 13 Sudoeste 0 -- -- 88
2019-09-27 01:00:00 10.3 9 Sudoeste 13 Oeste 0 -- -- 85
2019-09-27 00:00:00 11.4 7 Oeste 11 Sudoeste 0 -- -- 84
2019-09-26 23:00:00 12.9 6 Sudoeste 11 Oeste 0 -- -- 79
2019-09-26 22:00:00 14.9 4 Sudoeste 15 Norte 0 -- -- 72
2019-09-26 21:00:00 17.3 4 Sudoeste 8 Sudoeste 0 -- -- 64
2019-09-26 20:00:00 22.1 5 Oeste 12 Noroeste 0 -- -- 40
2019-09-26 19:00:00 24 8 Noroeste 17 Noroeste 0 -- -- 39
2019-09-26 18:00:00 24.7 9 Noroeste 22 Sudoeste 0 -- -- 41
2019-09-26 17:00:00 24.4 12 Sudoeste 26 Sudoeste 0 -- -- 42
2019-09-26 16:00:00 24.2 17 Sudoeste 30 Sudoeste 0 -- -- 42
2019-09-26 15:00:00 23.6 19 Sudoeste 28 Sudoeste 0 -- -- 45
2019-09-26 14:00:00 22.8 15 Oeste 23 Oeste 0 -- -- 49
2019-09-26 13:00:00 22 8 Norte 17 Norte 0 -- -- 47
2019-09-26 12:00:00 19.8 4 Norte 10 Nordeste 0 -- -- 55
2019-09-26 11:00:00 15.3 0 Calma 5 Este 0 -- -- 69
2019-09-26 10:00:00 11.4 0 Calma 12 Sudoeste 0 -- -- 84
2019-09-26 09:00:00 7.6 7 Sudoeste 20 Sudoeste 0 -- -- 93
2019-09-26 08:00:00 7.1 9 Sudoeste 15 Sudoeste 0 -- -- 93
2019-09-26 07:00:00 7.1 5 Sudoeste 14 Sudoeste 0 -- -- 92
2019-09-26 06:00:00 7.8 10 Sudoeste 14 Sudoeste 0 -- -- 92
2019-09-26 05:00:00 7.6 7 Sudoeste 11 Oeste 0 -- -- 92
2019-09-26 04:00:00 8 5 Sudoeste 8 Sudoeste 0 -- -- 91
2019-09-26 03:00:00 8.7 6 Sudoeste 12 Sudoeste 0 -- -- 90
2019-09-26 02:00:00 9.3 7 Oeste 10 Oeste 0 -- -- 89
2019-09-26 01:00:00 9.6 5 Sudoeste 12 Sudoeste 0 -- -- 88
2019-09-26 00:00:00 10.6 7 Sudoeste 10 Sudoeste 0 -- -- 86
2019-09-25 23:00:00 11.9 5 Sudoeste 6 Sudoeste 0 -- -- 82
2019-09-25 22:00:00 13.2 5 Sudoeste 9 Sudoeste 0 -- -- 76
2019-09-25 21:00:00 15.7 2 Sudeste 10 Noroeste 0 -- -- 65
2019-09-25 20:00:00 18.6 6 Norte 19 Norte 0 -- -- 53
2019-09-25 19:00:00 20.2 8 Norte 17 Noroeste 0 -- -- 48
2019-09-25 18:00:00 20.8 5 Norte 18 Norte 0 -- -- 44
2019-09-25 17:00:00 20.6 6 Nordeste 19 Norte 0 -- -- 46
2019-09-25 16:00:00 20.7 6 Nordeste 17 Norte 0 -- -- 45
2019-09-25 15:00:00 19.7 6 Nordeste 17 Norte 0 -- -- 46
2019-09-25 14:00:00 18.4 6 Norte 17 Norte 0 -- -- 48
2019-09-25 13:00:00 16.6 9 Norte 20 Norte 0 -- -- 59
2019-09-25 12:00:00 14.8 8 Norte 16 Norte 0 -- -- 70
2019-09-25 11:00:00 12.5 6 Norte 17 Norte 0 -- -- 79
2019-09-25 10:00:00 10.9 6 Norte 12 Norte 0 -- -- 85
2019-09-25 09:00:00 10.2 2 Nordeste 11 Norte 0 -- -- 89
2019-09-25 08:00:00 10.7 4 Noroeste 6 Norte 0 -- -- 88
2019-09-25 07:00:00 10.7 0 Calma 10 Nordeste 0 -- -- 89
2019-09-25 06:00:00 10.1 5 Norte 9 Norte 0 -- -- 91
2019-09-25 05:00:00 10.9 2 Noroeste 9 Norte 0 -- -- 84
2019-09-25 04:00:00 11.8 3 Norte 9 Nordeste 0 -- -- 82
2019-09-25 03:00:00 12.9 5 Nordeste 14 Nordeste 0 -- -- 77
2019-09-25 02:00:00 13.6 10 Nordeste 19 Nordeste 0 -- -- 75
2019-09-25 01:00:00 14.1 9 Nordeste 16 Nordeste 0 -- -- 77
2019-09-25 00:00:00 15 10 Nordeste 25 Norte 0 -- -- 78
2019-09-24 23:00:00 15.9 8 Norte 24 Noroeste 0 -- -- 75
2019-09-24 22:00:00 17.1 5 Nordeste 18 Norte 0 -- -- 79
2019-09-24 21:00:00 17.3 4 Noroeste 16 Sudoeste 0 -- -- 81
2019-09-24 20:00:00 17.9 9 Sudoeste 20 Oeste 0 -- -- 80
2019-09-24 19:00:00 19.1 13 Oeste 24 Sudoeste 0 -- -- 73
2019-09-24 18:00:00 20.1 18 Oeste 31 Sudoeste 0 -- -- 70
2019-09-24 17:00:00 20.9 21 Oeste 35 Sudoeste 0 -- -- 66
2019-09-24 16:00:00 21 18 Sudoeste 31 Oeste 0 -- -- 64
2019-09-24 15:00:00 21.7 18 Sudoeste 28 Oeste 0 -- -- 62
2019-09-24 14:00:00 21 15 Sudoeste 26 Oeste 0 -- -- 64
2019-09-24 13:00:00 21.4 12 Sudoeste 22 Oeste 0 -- -- 60
2019-09-24 12:00:00 18.3 5 Norte 13 Norte 0 -- -- 55
2019-09-24 11:00:00 16.6 3 Este 9 Este 0 -- -- 61
2019-09-24 10:00:00 11.6 3 Oeste 9 Sudoeste 0 -- -- 76
2019-09-24 09:00:00 7.2 4 Oeste 9 Oeste 0 -- -- 87
2019-09-24 08:00:00 6.7 3 Oeste 8 Oeste 0 -- -- 86
2019-09-24 07:00:00 6.7 3 Noroeste 7 Oeste 0 -- -- 91
2019-09-24 06:00:00 7.7 4 Oeste 9 Oeste 0 -- -- 88
2019-09-24 05:00:00 8.4 6 Este 13 Norte 0 -- -- 85
2019-09-24 04:00:00 8.7 7 Sudoeste 14 Oeste 0 -- -- 88
2019-09-24 03:00:00 8.3 7 Sudoeste 12 Oeste 0 -- -- 90
2019-09-24 02:00:00 9.1 6 Oeste 14 Sudoeste 0 -- -- 87
2019-09-24 01:00:00 10.1 7 Sudoeste 15 Sudoeste 0 -- -- 87
2019-09-24 00:00:00 10.7 8 Sudoeste 12 Oeste 0 -- -- 86
2019-09-23 23:00:00 11.9 3 Sudoeste 10 Sudoeste 0 -- -- 77
2019-09-23 22:00:00 13.6 8 Sudoeste 20 Oeste 0 -- -- 64
2019-09-23 21:00:00 15.7 5 Sudoeste 22 Oeste 0 -- -- 57
2019-09-23 20:00:00 17.8 13 Oeste 24 Sudoeste 0 -- -- 53
2019-09-23 19:00:00 19.5 11 Oeste 22 Oeste 0 -- -- 55
2019-09-23 18:00:00 21.7 10 Oeste 17 Sudoeste 0 -- -- 54
2019-09-23 17:00:00 22.5 7 Oeste 17 Oeste 0 -- -- 47
2019-09-23 16:00:00 21.5 5 Sudoeste 18 Sudoeste 0 -- -- 48
2019-09-23 15:00:00 21.2 6 Noroeste 17 Norte 0 -- -- 48
2019-09-23 14:00:00 19.7 8 Oeste 20 Sudoeste 0 -- -- 50
2019-09-23 13:00:00 18.8 4 Este 18 Oeste 0 -- -- 48
2019-09-23 12:00:00 16.4 8 Sudoeste 13 Oeste 0 -- -- 62
2019-09-23 11:00:00 12.8 9 Sudoeste 13 Sudoeste 0 -- -- 81
2019-09-23 10:00:00 9.4 9 Sudoeste 15 Sudoeste 0 -- -- 91
2019-09-23 09:00:00 6.5 7 Oeste 11 Sudoeste 0 -- -- 95
2019-09-23 08:00:00 6.2 4 Sudoeste 19 Sudoeste 0 -- -- 94
2019-09-23 07:00:00 6.1 8 Sudoeste 12 Sudoeste 0 -- -- 94
2019-09-23 06:00:00 6.6 7 Sudoeste 10 Oeste 0 -- -- 94
2019-09-23 05:00:00 6.6 3 Sudoeste 7 Sudoeste 0 -- -- 93
2019-09-23 04:00:00 7.5 2 Oeste 8 Oeste 0 -- -- 92
2019-09-23 03:00:00 8.2 4 Oeste 11 Oeste 0 -- -- 92
2019-09-23 02:00:00 8.9 7 Sudoeste 9 Sudoeste 0 -- -- 92
2019-09-23 01:00:00 9.9 5 Oeste 10 Sur 0 -- -- 91
2019-09-23 00:00:00 11.1 5 Sudoeste 10 Sudoeste 0 -- -- 88
2019-09-22 23:00:00 12.6 3 Sudoeste 11 Oeste 0 -- -- 84
2019-09-22 22:00:00 13.6 4 Sudoeste 14 Oeste 0 -- -- 81
2019-09-22 21:00:00 14.1 7 Oeste 16 Oeste 0 -- -- 78
2019-09-22 20:00:00 15.3 8 Oeste 23 Oeste 0 -- -- 72
2019-09-22 19:00:00 17.4 11 Norte 24 Norte 0 -- -- 55
2019-09-22 18:00:00 18.3 8 Oeste 26 Noroeste 0 -- -- 55
2019-09-22 17:00:00 17.4 14 Norte 27 Norte 0 -- -- 54
2019-09-22 16:00:00 18.1 11 Noroeste 23 Noroeste 0 -- -- 52
2019-09-22 15:00:00 17.6 10 Noroeste 19 Norte 0 -- -- 58
2019-09-22 14:00:00 16.4 8 Norte 20 Norte 0 -- -- 67
2019-09-22 13:00:00 16.1 6 Nordeste 14 Norte 0 -- -- 65
2019-09-22 12:00:00 14.5 5 Norte 9 Norte 0 -- -- 71
2019-09-22 11:00:00 13.2 4 Noroeste 7 Norte 0 -- -- 80
2019-09-22 10:00:00 12.1 3 Sudeste 8 Nordeste 0 -- -- 85
2019-09-22 09:00:00 10.8 3 Nordeste 12 Nordeste 0 -- -- 91
2019-09-22 08:00:00 10.6 6 Nordeste 19 Nordeste 0 -- -- 91
2019-09-22 07:00:00 10.3 12 Nordeste 31 Norte 0 -- -- 93
2019-09-22 06:00:00 10.8 16 Norte 32 Norte 0.2 -- -- 90
2019-09-22 05:00:00 14.2 17 Oeste 41 Oeste 0 -- -- 91
2019-09-22 04:00:00 14.5 26 Sudoeste 40 Sudoeste 0.8 -- -- 92
2019-09-22 03:00:00 14.2 17 Oeste 28 Sudoeste 0.6 -- -- 93
2019-09-22 02:00:00 14.5 17 Sudoeste 43 Sudoeste 1.2 -- -- 91
2019-09-22 01:00:00 15.6 21 Sudoeste 41 Sur 0 -- -- 83
2019-09-22 00:00:00 15.7 17 Sudoeste 45 Sudoeste 0.4 -- -- 85
2019-09-21 23:00:00 15.5 15 Sudoeste 34 Sudoeste 0 -- -- 87
2019-09-21 22:00:00 15.2 19 Sudoeste 41 Sudoeste 0 -- -- 86
2019-09-21 21:00:00 15.1 16 Sudoeste 41 Sudoeste 0 -- -- 84
2019-09-21 20:00:00 15.3 20 Sudoeste 33 Sudoeste 0 -- -- 81
2019-09-21 19:00:00 14.9 16 Sudoeste 35 Oeste 0.2 -- -- 87
2019-09-21 18:00:00 14.6 18 Oeste 35 Sudoeste 0.4 -- -- 87
2019-09-21 17:00:00 14.3 17 Sudoeste 34 Sudoeste 0.4 -- -- 87
2019-09-21 16:00:00 15.9 16 Sudoeste 32 Oeste 0 -- -- 78
2019-09-21 15:00:00 16 15 Sudoeste 35 Sudoeste 0 -- -- 76
2019-09-21 14:00:00 16.5 19 Sudoeste 30 Sudoeste 0 -- -- 75
2019-09-21 13:00:00 15 18 Sudoeste 32 Sudoeste 0 -- -- 78
2019-09-21 12:00:00 14.7 16 Sudoeste 32 Sudoeste 0 -- -- 80
2019-09-21 11:00:00 14.6 17 Sudoeste 35 Sudoeste 0 -- -- 81
2019-09-21 10:00:00 14.4 15 Sudoeste 34 Sudoeste 0 -- -- 81
2019-09-21 09:00:00 14.3 17 Sudoeste 28 Sudoeste 0 -- -- 83
2019-09-21 08:00:00 13.9 12 Sudoeste 23 Sudoeste 0 -- -- 82
2019-09-21 07:00:00 13.6 14 Sudoeste 28 Sudoeste 0 -- -- 85
2019-09-21 06:00:00 13.6 13 Sudoeste 24 Sudoeste 0 -- -- 83
2019-09-21 05:00:00 14 12 Oeste 22 Sudoeste 0 -- -- 81
2019-09-21 04:00:00 14.2 15 Sudoeste 27 Sudoeste 0 -- -- 80
2019-09-21 03:00:00 14.4 15 Sudoeste 24 Sudoeste 0 -- -- 79
2019-09-21 02:00:00 14.7 14 Sudoeste 27 Sudoeste 0 -- -- 83
2019-09-21 01:00:00 14.5 7 Sudoeste 13 Sudoeste 0 -- -- 84
2019-09-21 00:00:00 14.7 7 Sudoeste 17 Sudoeste 0 -- -- 84
2019-09-20 23:00:00 14.4 8 Sudoeste 12 Sudoeste 0 -- -- 85
2019-09-20 22:00:00 14.9 5 Sudoeste 21 Sudoeste 0 -- -- 82
2019-09-20 21:00:00 15.5 5 Oeste 18 Sur 0.6 -- -- 81
2019-09-20 20:00:00 16.9 9 Sudoeste 15 Sur 1.4 -- -- 79
2019-09-20 19:00:00 17.7 5 Sudoeste 24 Sur 0.2 -- -- 77
2019-09-20 18:00:00 18.9 18 Sur 36 Sur 0 -- -- 67
2019-09-20 17:00:00 21.8 18 Sur 31 Sudoeste 0 -- -- 51
2019-09-20 16:00:00 21.8 19 Sur 33 Sur 0 -- -- 52
2019-09-20 15:00:00 22.8 18 Sur 35 Sur 0 -- -- 50
2019-09-20 14:00:00 22.3 21 Sur 33 Sur 0 -- -- 50
2019-09-20 13:00:00 21 20 Sur 32 Sur 0 -- -- 55
2019-09-20 12:00:00 20.5 18 Sur 33 Sur 0 -- -- 57
2019-09-20 11:00:00 20 14 Sur 29 Sur 0 -- -- 57
2019-09-20 10:00:00 18 13 Sur 21 Sur 0 -- -- 64
2019-09-20 09:00:00 16 7 Sur 17 Sudoeste 0 -- -- 74
2019-09-20 08:00:00 12.2 8 Sudoeste 12 Sudoeste 0 -- -- 88
2019-09-20 07:00:00 11.7 4 Sudoeste 10 Oeste 0 -- -- 89
2019-09-20 06:00:00 12.1 4 Sudoeste 8 Oeste 0 -- -- 88
2019-09-20 05:00:00 12.6 3 Sudoeste 12 Oeste 0 -- -- 86
2019-09-20 04:00:00 12.5 7 Sudoeste 13 Sudoeste 0 -- -- 87
2019-09-20 03:00:00 12.4 5 Oeste 18 Sudoeste 0 -- -- 86
2019-09-20 02:00:00 12.8 6 Oeste 13 Sudoeste 0 -- -- 83
2019-09-20 01:00:00 13.4 9 Sudoeste 18 Sudoeste 0 -- -- 82
2019-09-20 00:00:00 14.1 11 Sudoeste 17 Sudoeste 0 -- -- 79
2019-09-19 23:00:00 14.6 9 Sudoeste 13 Sudoeste 0 -- -- 79
2019-09-19 22:00:00 15.8 6 Sudoeste 10 Oeste 0 -- -- 77
2019-09-19 21:00:00 18.2 4 Sur 12 Sur 0 -- -- 68
2019-09-19 20:00:00 20.5 8 Norte 17 Este 0 -- -- 58
2019-09-19 19:00:00 24.9 8 Nordeste 14 Este 0 -- -- 44
2019-09-19 18:00:00 24.9 5 Norte 10 Norte 0 -- -- 42
2019-09-19 17:00:00 23.7 7 Norte 15 Noroeste 0 -- -- 45
2019-09-19 16:00:00 23.9 8 Noroeste 18 Noroeste 0 -- -- 44
2019-09-19 15:00:00 24.1 4 Este 17 Sudoeste 0 -- -- 41
2019-09-19 14:00:00 24.5 10 Oeste 16 Oeste 0 -- -- 44
2019-09-19 13:00:00 23.9 5 Oeste 13 Oeste 0 -- -- 45
2019-09-19 12:00:00 21.5 5 Sudoeste 22 Sur 0 -- -- 55
2019-09-19 11:00:00 18.2 9 Sudoeste 15 Sudoeste 0 -- -- 69
2019-09-19 10:00:00 14.5 11 Sudoeste 19 Sudoeste 0 -- -- 83
2019-09-19 09:00:00 10.9 10 Sudoeste 19 Sudoeste 0 -- -- 90
2019-09-19 08:00:00 10.2 11 Sudoeste 19 Sudoeste 0 -- -- 91
2019-09-19 07:00:00 10.5 10 Sudoeste 18 Sudoeste 0 -- -- 91
2019-09-19 06:00:00 10.6 13 Sudoeste 19 Sudoeste 0 -- -- 89
2019-09-19 05:00:00 10.4 12 Sudoeste 17 Sudoeste 0 -- -- 92
2019-09-19 04:00:00 10.8 14 Sudoeste 21 Sudoeste 0 -- -- 91
2019-09-19 03:00:00 11.4 13 Sudoeste 17 Sudoeste 0 -- -- 89
2019-09-19 02:00:00 12.1 11 Sudoeste 19 Sudoeste 0 -- -- 89
2019-09-19 01:00:00 11.9 10 Sudoeste 24 Sur 0 -- -- 90
2019-09-19 00:00:00 13.3 12 Sudoeste 17 Sudoeste 0 -- -- 85
2019-09-18 23:00:00 14 8 Sudoeste 16 Sudoeste 0 -- -- 84
2019-09-18 22:00:00 14.9 12 Sudoeste 15 Oeste 0 -- -- 83
2019-09-18 21:00:00 16.7 9 Sudoeste 14 Oeste 0 -- -- 75
2019-09-18 20:00:00 18.9 5 Sudoeste 17 Sudoeste 0 -- -- 65
2019-09-18 19:00:00 20.8 13 Sudoeste 21 Oeste 0 -- -- 54
2019-09-18 18:00:00 23.7 9 Norte 15 Noroeste 0 -- -- 44
2019-09-18 17:00:00 23.5 8 Norte 18 Nordeste 0 -- -- 46
2019-09-18 16:00:00 24.9 10 Norte 18 Oeste 0 -- -- 44
2019-09-18 15:00:00 23.9 9 Norte 21 Noroeste 0 -- -- 43
2019-09-18 14:00:00 23.5 9 Norte 18 Norte 0 -- -- 48
2019-09-18 13:00:00 22.1 8 Norte 17 Norte 0 -- -- 50
2019-09-18 12:00:00 19.8 3 Nordeste 10 Este 0 -- -- 58
2019-09-18 11:00:00 16.5 6 Sudoeste 14 Sudoeste 0 -- -- 72
2019-09-18 10:00:00 12.8 8 Sudoeste 17 Sudoeste 0 -- -- 86
2019-09-18 09:00:00 9.9 10 Sudoeste 16 Sudoeste 0 -- -- 93
2019-09-18 08:00:00 9 11 Sudoeste 17 Oeste 0 -- -- 93
2019-09-18 07:00:00 9.3 9 Sudoeste 14 Sudoeste 0 -- -- 93
2019-09-18 06:00:00 9.9 8 Sudoeste 15 Sudoeste 0 -- -- 92
2019-09-18 05:00:00 10.6 9 Sudoeste 13 Sudoeste 0 -- -- 93
2019-09-18 04:00:00 11.4 9 Sudoeste 14 Sudoeste 0 -- -- 91
2019-09-18 03:00:00 12.2 9 Sudoeste 16 Sudoeste 0 -- -- 89
2019-09-18 02:00:00 12.4 9 Sudoeste 18 Sudoeste 0 -- -- 89
2019-09-18 01:00:00 13.3 14 Sudoeste 25 Sur 0 -- -- 81
2019-09-18 00:00:00 13.3 12 Sudoeste 21 Sudoeste 0 -- -- 82
2019-09-17 23:00:00 13 15 Sudoeste 24 Sur 0.2 -- -- 84
2019-09-17 22:00:00 13.9 11 Sur 29 Oeste 3.8 -- -- 78
2019-09-17 21:00:00 15.4 16 Oeste 32 Oeste 0.6 -- -- 76